Time,TemperatureF,DewpointF,PressureIn,WindDirection,WindDirectionDegrees,WindSpeedMPH,WindSpeedGustMPH,Humidity,HourlyPrecipIn,Conditions,Clouds,dailyrainin,SolarRadiationWatts/m^2,SoftwareType,DateUTC
2013-04-01 00:02:00,53.0,34.0,-100.00,North,6,3.0,6.0,48,0.00,,,0.24,0.000000,,2013-04-01 05:02:00,
2013-04-01 00:12:00,53.0,34.0,-100.00,North,6,3.0,6.0,48,0.00,,,0.24,0.000000,,2013-04-01 05:12:00,
2013-04-01 00:33:00,51.0,32.0,-100.00,North,10,2.0,4.0,48,0.00,,,0.24,0.000000,,2013-04-01 05:33:00,
2013-04-01 00:43:00,51.0,32.0,-100.00,North,10,2.0,4.0,48,0.00,,,0.24,0.000000,,2013-04-01 05:43:00,
2013-04-01 00:53:00,51.0,32.0,-100.00,North,10,2.0,4.0,48,0.00,,,0.24,0.000000,,2013-04-01 05:53:00,
2013-04-01 01:02:00,51.0,32.0,-100.00,North,10,2.0,4.0,48,0.00,,,0.24,0.000000,,2013-04-01 06:02:00,
2013-04-01 01:12:00,51.0,32.0,-100.00,North,10,2.0,4.0,48,0.00,,,0.24,0.000000,,2013-04-01 06:12:00,
2013-04-01 01:34:00,51.0,31.0,-100.00,North,9,3.0,5.0,47,0.00,,,0.24,0.000000,,2013-04-01 06:34:00,
2013-04-01 01:43:00,51.0,31.0,-100.00,North,9,3.0,5.0,47,0.00,,,0.24,0.000000,,2013-04-01 06:43:00,
2013-04-01 01:53:00,51.0,31.0,-100.00,North,9,3.0,5.0,47,0.00,,,0.24,0.000000,,2013-04-01 06:53:00,
2013-04-01 02:02:00,51.0,31.0,-100.00,North,9,3.0,5.0,47,0.00,,,0.24,0.000000,,2013-04-01 07:02:00,
2013-04-01 02:12:00,51.0,31.0,-100.00,North,9,3.0,5.0,47,0.00,,,0.24,0.000000,,2013-04-01 07:12:00,
2013-04-01 02:32:00,49.0,32.0,-100.00,North,350,4.0,6.0,51,0.00,,,-99.99,0.000000,,2013-04-01 07:32:00,
2013-04-01 02:43:00,49.0,32.0,-100.00,North,350,4.0,6.0,51,0.00,,,-99.99,0.000000,,2013-04-01 07:43:00,
2013-04-01 02:53:00,49.0,32.0,-100.00,North,350,4.0,6.0,51,0.00,,,-99.99,0.000000,,2013-04-01 07:53:00,
2013-04-01 03:03:00,49.0,32.0,-100.00,North,350,4.0,6.0,51,0.00,,,-99.99,0.000000,,2013-04-01 08:03:00,
2013-04-01 03:12:00,49.0,32.0,-100.00,North,350,4.0,6.0,51,0.00,,,-99.99,0.000000,,2013-04-01 08:12:00,
2013-04-01 03:32:00,45.0,28.0,-100.00,NNE,21,9.0,13.0,52,0.00,,,0.24,0.000000,,2013-04-01 08:32:00,
2013-04-01 03:43:00,45.0,28.0,-100.00,NNE,21,9.0,13.0,52,0.00,,,0.24,0.000000,,2013-04-01 08:43:00,
2013-04-01 03:53:00,45.0,28.0,-100.00,NNE,21,9.0,13.0,52,0.00,,,0.24,0.000000,,2013-04-01 08:53:00,
2013-04-01 04:02:00,45.0,28.0,-100.00,NNE,21,9.0,13.0,52,0.00,,,0.24,0.000000,,2013-04-01 09:02:00,
2013-04-01 04:12:00,45.0,28.0,-100.00,NNE,21,9.0,13.0,52,0.00,,,0.24,0.000000,,2013-04-01 09:12:00,
2013-04-01 04:43:00,43.0,30.0,-100.00,NNE,19,6.0,11.0,61,0.00,,,0.24,0.000000,,2013-04-01 09:43:00,
2013-04-01 04:53:00,43.0,30.0,-100.00,NNE,19,6.0,11.0,61,0.00,,,0.24,0.000000,,2013-04-01 09:53:00,
2013-04-01 05:03:00,43.0,30.0,-100.00,NNE,19,6.0,11.0,61,0.00,,,0.24,0.000000,,2013-04-01 10:03:00,
2013-04-01 05:12:00,43.0,30.0,-100.00,NNE,19,6.0,11.0,61,0.00,,,0.24,0.000000,,2013-04-01 10:12:00,
2013-04-01 05:34:00,42.0,30.0,-100.00,NNE,33,7.0,13.0,62,0.00,,,0.08,0.000000,,2013-04-01 10:34:00,
2013-04-01 05:43:00,42.0,30.0,-100.00,NNE,33,7.0,13.0,62,0.00,,,0.08,0.000000,,2013-04-01 10:43:00,
2013-04-01 05:53:00,42.0,30.0,-100.00,NNE,33,7.0,13.0,62,0.00,,,0.08,0.000000,,2013-04-01 10:53:00,
2013-04-01 06:03:00,42.0,30.0,-100.00,NNE,33,7.0,13.0,62,0.00,,,0.08,0.000000,,2013-04-01 11:03:00,
2013-04-01 06:12:00,42.0,30.0,-100.00,NNE,33,7.0,13.0,62,0.00,,,0.08,0.000000,,2013-04-01 11:12:00,
2013-04-01 06:33:00,40.0,30.0,-100.00,NNE,20,6.0,11.0,67,0.00,,,0.00,0.000000,,2013-04-01 11:33:00,
2013-04-01 06:43:00,40.0,30.0,-100.00,NNE,20,6.0,11.0,67,0.00,,,0.00,0.000000,,2013-04-01 11:43:00,
2013-04-01 06:53:00,40.0,30.0,-100.00,NNE,20,6.0,11.0,67,0.00,,,0.00,0.000000,,2013-04-01 11:53:00,
2013-04-01 07:02:00,40.0,30.0,-100.00,NNE,20,6.0,11.0,67,0.00,,,0.00,0.000000,,2013-04-01 12:02:00,
2013-04-01 07:12:00,40.0,30.0,-100.00,NNE,20,6.0,11.0,67,0.00,,,0.00,0.000000,,2013-04-01 12:12:00,
2013-04-01 07:43:00,40.0,31.0,-100.00,North,10,8.0,14.0,70,0.00,,,-99.99,2.000000,,2013-04-01 12:43:00,
2013-04-01 07:53:00,40.0,31.0,-100.00,North,10,8.0,14.0,70,0.00,,,-99.99,2.000000,,2013-04-01 12:53:00,
2013-04-01 08:03:00,40.0,31.0,-100.00,North,10,8.0,14.0,70,0.00,,,-99.99,2.000000,,2013-04-01 13:03:00,
2013-04-01 08:12:00,40.0,31.0,-100.00,North,10,8.0,14.0,70,0.00,,,-99.99,2.000000,,2013-04-01 13:12:00,
2013-04-01 08:43:00,40.0,32.0,-100.00,NNE,15,7.0,12.0,74,0.00,,,-99.99,48.000000,,2013-04-01 13:43:00,
2013-04-01 08:53:00,40.0,32.0,-100.00,NNE,15,7.0,12.0,74,0.00,,,-99.99,48.000000,,2013-04-01 13:53:00,
2013-04-01 09:03:00,40.0,32.0,-100.00,NNE,15,7.0,12.0,74,0.00,,,-99.99,48.000000,,2013-04-01 14:03:00,
2013-04-01 09:12:00,40.0,32.0,-100.00,NNE,15,7.0,12.0,74,0.00,,,-99.99,48.000000,,2013-04-01 14:12:00,
2013-04-01 09:13:00,40.0,32.0,-100.00,NNE,16,8.0,13.0,73,0.00,,,0.00,116.000000,,2013-04-01 14:13:00,
2013-04-01 09:43:00,40.0,32.0,-100.00,NNE,16,8.0,13.0,73,0.00,,,0.00,116.000000,,2013-04-01 14:43:00,
2013-04-01 09:53:00,40.0,32.0,-100.00,NNE,16,8.0,13.0,73,0.00,,,0.00,116.000000,,2013-04-01 14:53:00,
2013-04-01 10:03:00,40.0,32.0,-100.00,NNE,16,8.0,13.0,73,0.00,,,0.00,116.000000,,2013-04-01 15:03:00,
2013-04-01 10:13:00,41.0,32.0,-100.00,North,5,8.0,17.0,70,0.00,,,0.00,255.000000,,2013-04-01 15:13:00,
2013-04-01 10:43:00,41.0,32.0,-100.00,North,5,8.0,17.0,70,0.00,,,0.00,255.000000,,2013-04-01 15:43:00,
2013-04-01 10:54:00,41.0,32.0,-100.00,North,5,8.0,17.0,70,0.00,,,0.00,255.000000,,2013-04-01 15:54:00,
2013-04-01 11:03:00,41.0,32.0,-100.00,North,5,8.0,17.0,70,0.00,,,0.00,255.000000,,2013-04-01 16:03:00,
2013-04-01 12:32:00,45.0,29.0,-100.00,NE,41,9.0,16.0,53,-99.99,,,0.00,718.000000,,2013-04-01 17:32:00,
2013-04-01 12:42:00,45.0,29.0,-100.00,NE,41,9.0,16.0,53,-99.99,,,0.00,718.000000,,2013-04-01 17:42:00,
2013-04-01 12:53:00,45.0,29.0,-100.00,NE,41,9.0,16.0,53,-99.99,,,0.00,718.000000,,2013-04-01 17:53:00,
2013-04-01 13:02:00,45.0,29.0,-100.00,NE,41,9.0,16.0,53,-99.99,,,0.00,718.000000,,2013-04-01 18:02:00,
2013-04-01 13:12:00,45.0,29.0,-100.00,NE,41,9.0,16.0,53,-99.99,,,0.00,718.000000,,2013-04-01 18:12:00,
2013-04-01 13:43:00,45.0,22.0,-100.00,NNE,26,9.0,15.0,40,0.00,,,0.00,828.000000,,2013-04-01 18:43:00,
2013-04-01 13:53:00,45.0,22.0,-100.00,NNE,26,9.0,15.0,40,0.00,,,0.00,828.000000,,2013-04-01 18:53:00,
2013-04-01 14:03:00,45.0,22.0,-100.00,NNE,26,9.0,15.0,40,0.00,,,0.00,828.000000,,2013-04-01 19:03:00,
2013-04-01 14:12:00,45.0,22.0,-100.00,NNE,26,9.0,15.0,40,0.00,,,0.00,828.000000,,2013-04-01 19:12:00,
2013-04-01 14:43:00,48.0,20.0,-100.00,North,8,7.0,15.0,33,0.00,,,0.00,933.000000,,2013-04-01 19:43:00,
2013-04-01 14:53:00,48.0,20.0,-100.00,North,8,7.0,15.0,33,0.00,,,0.00,933.000000,,2013-04-01 19:53:00,
2013-04-01 15:02:00,48.0,20.0,-100.00,North,8,7.0,15.0,33,0.00,,,0.00,933.000000,,2013-04-01 20:02:00,
2013-04-01 15:12:00,48.0,20.0,-100.00,North,8,7.0,15.0,33,0.00,,,0.00,933.000000,,2013-04-01 20:12:00,
2013-04-01 15:43:00,48.0,18.0,-100.00,NW,323,7.0,16.0,30,0.00,,,0.00,678.000000,,2013-04-01 20:43:00,
2013-04-01 15:52:00,48.0,18.0,-100.00,NW,323,7.0,16.0,30,0.00,,,0.00,678.000000,,2013-04-01 20:52:00,
2013-04-01 16:02:00,48.0,18.0,-100.00,NW,323,7.0,16.0,30,0.00,,,0.00,678.000000,,2013-04-01 21:02:00,
2013-04-01 16:12:00,48.0,18.0,-100.00,NW,323,7.0,16.0,30,0.00,,,0.00,678.000000,,2013-04-01 21:12:00,
2013-04-01 16:43:00,48.0,16.0,-100.00,NNW,345,7.0,14.0,28,0.00,,,0.00,425.000000,,2013-04-01 21:43:00,
2013-04-01 16:53:00,48.0,16.0,-100.00,NNW,345,7.0,14.0,28,0.00,,,0.00,425.000000,,2013-04-01 21:53:00,
2013-04-01 17:02:00,48.0,16.0,-100.00,NNW,345,7.0,14.0,28,0.00,,,0.00,425.000000,,2013-04-01 22:02:00,
2013-04-01 17:12:00,48.0,16.0,-100.00,NNW,345,7.0,14.0,28,0.00,,,0.00,425.000000,,2013-04-01 22:12:00,
2013-04-01 17:33:00,47.0,13.0,-100.00,North,357,6.0,14.0,25,0.00,,,0.00,274.000000,,2013-04-01 22:33:00,
2013-04-01 17:43:00,47.0,13.0,-100.00,North,357,6.0,14.0,25,0.00,,,0.00,274.000000,,2013-04-01 22:43:00,
2013-04-01 17:52:00,47.0,13.0,-100.00,North,357,6.0,14.0,25,0.00,,,0.00,274.000000,,2013-04-01 22:52:00,
2013-04-01 18:02:00,47.0,13.0,-100.00,North,357,6.0,14.0,25,0.00,,,0.00,274.000000,,2013-04-01 23:02:00,
2013-04-01 18:12:00,47.0,13.0,-100.00,North,357,6.0,14.0,25,0.00,,,0.00,274.000000,,2013-04-01 23:12:00,
2013-04-01 18:43:00,46.0,16.0,-100.00,North,353,6.0,11.0,29,0.00,,,0.00,168.000000,,2013-04-01 23:43:00,
2013-04-01 18:53:00,46.0,16.0,-100.00,North,353,6.0,11.0,29,0.00,,,0.00,168.000000,,2013-04-01 23:53:00,
2013-04-01 19:03:00,46.0,16.0,-100.00,North,353,6.0,11.0,29,0.00,,,0.00,168.000000,,2013-04-02 00:03:00,
2013-04-01 19:12:00,46.0,16.0,-100.00,North,353,6.0,11.0,29,0.00,,,0.00,168.000000,,2013-04-02 00:12:00,
2013-04-01 19:33:00,44.0,17.0,-100.00,North,356,6.0,10.0,34,0.00,,,0.00,55.000000,,2013-04-02 00:33:00,
2013-04-01 19:43:00,44.0,17.0,-100.00,North,356,6.0,10.0,34,0.00,,,0.00,55.000000,,2013-04-02 00:43:00,
2013-04-01 19:53:00,44.0,17.0,-100.00,North,356,6.0,10.0,34,0.00,,,0.00,55.000000,,2013-04-02 00:53:00,
2013-04-01 20:02:00,44.0,17.0,-100.00,North,356,6.0,10.0,34,0.00,,,0.00,55.000000,,2013-04-02 01:02:00,
2013-04-01 20:12:00,44.0,17.0,-100.00,North,356,6.0,10.0,34,0.00,,,0.00,55.000000,,2013-04-02 01:12:00,
2013-04-01 20:43:00,42.0,18.0,-100.00,NNE,29,4.0,10.0,38,0.00,,,0.00,3.000000,,2013-04-02 01:43:00,
2013-04-01 20:53:00,42.0,18.0,-100.00,NNE,29,4.0,10.0,38,0.00,,,0.00,3.000000,,2013-04-02 01:53:00,
2013-04-01 21:02:00,42.0,18.0,-100.00,NNE,29,4.0,10.0,38,0.00,,,0.00,3.000000,,2013-04-02 02:02:00,
2013-04-01 21:12:00,42.0,18.0,-100.00,NNE,29,4.0,10.0,38,0.00,,,0.00,3.000000,,2013-04-02 02:12:00,
2013-04-01 21:43:00,42.0,19.0,-100.00,NNE,23,6.0,9.0,40,0.00,,,0.00,0.000000,,2013-04-02 02:43:00,
2013-04-01 21:53:00,42.0,19.0,-100.00,NNE,23,6.0,9.0,40,0.00,,,0.00,0.000000,,2013-04-02 02:53:00,
2013-04-01 22:02:00,42.0,19.0,-100.00,NNE,23,6.0,9.0,40,0.00,,,0.00,0.000000,,2013-04-02 03:02:00,
2013-04-01 22:12:00,42.0,19.0,-100.00,NNE,23,6.0,9.0,40,0.00,,,0.00,0.000000,,2013-04-02 03:12:00,
2013-04-01 22:13:00,41.0,17.0,-100.00,North,11,6.0,14.0,38,0.00,,,0.00,0.000000,,2013-04-02 03:13:00,
2013-04-01 22:33:00,41.0,17.0,-100.00,North,11,6.0,14.0,38,0.00,,,0.00,0.000000,,2013-04-02 03:33:00,
2013-04-01 22:43:00,41.0,17.0,-100.00,North,11,6.0,14.0,38,0.00,,,0.00,0.000000,,2013-04-02 03:43:00,
2013-04-01 22:53:00,41.0,17.0,-100.00,North,11,6.0,14.0,38,0.00,,,0.00,0.000000,,2013-04-02 03:53:00,
2013-04-01 23:03:00,41.0,17.0,-100.00,North,11,6.0,14.0,38,0.00,,,0.00,0.000000,,2013-04-02 04:03:00,
2013-04-01 23:43:00,39.0,17.0,-100.00,North,1,6.0,9.0,40,0.00,,,0.00,0.000000,,2013-04-02 04:43:00,
2013-04-01 23:53:00,39.0,17.0,-100.00,North,1,6.0,9.0,40,0.00,,,0.00,0.000000,,2013-04-02 04:53:00,